Main page
METAR-TAF:

METAR-TAF

Airports :

Radom Airport

Radom, Poland

latitude: 51-23-21N, longitude: 21-12-49E, elevation: 186 m

Current weather observation

The report was made 4 hours and 22 minutes ago, at 19:00 UTC
Wind 6 kt from the South/Southeast
Temperature -2°C
Humidity 93%
Pressure 1019 hPa
Visibility: 8000 m
Broken clouds at a height of 2400 ft

METAR: EPRA 161900Z 15006KT 8000 BKN024 M02/M03 Q1019

Time: 00:22 (23:22 UTC)

Forecast

The report was made 5 hours and 52 minutes ago, at 17:30 UTC
Forecast valid from 16 at 18 UTC to 17 at 03 UTC
Wind 6 kt from the South
Visibility: 8000 m
Broken clouds at a height of 2200 ft
Probability 40% :
Temporary
from 16 at 22 UTC to 17 at 03 UTC
Visibility: 4000 m
Broken clouds at a height of 500 ft
mist

TAF: EPRA 161730Z 1618/1703 18006KT 8000 BKN022 PROB40 TEMPO 1622/1703 4000 BR BKN005

Weather observations and forecasts of more than 4000 airports (METAR and TAF reports).

The available stations are represented by yellow and red dots on the map.

Hover mouse over dot to see the name of the station.

Then click to see weather observations and forecasts.

To change the map : click on the green buttons with a black cross to zoom in, on the green button with a dash to zoom out, or on the green arrows for adjacent maps.


METAR-TAF: